Time;durP1;ratioP1;P1;durP2;ratioP2;P2;SDS_P1;SDS_P2;PMS_P1;PMS_P2;Temp;Humidity;BMP_temperature;BMP_pressure;BME280_temperature;BME280_humidity;BME280_pressure;Samples;Min_cycle;Max_cycle;Signal;HPM_P1;HPM_P2
2024/04/19 00:00:01;;;;;;;7.47;5.30;;;5.80;81.70;;;;;;5415823;26;20349;-77
2024/04/19 00:02:26;;;;;;;8.17;4.77;;;5.90;81.70;;;;;;5413729;26;20241;-76
2024/04/19 00:04:52;;;;;;;6.27;4.23;;;5.90;81.20;;;;;;5412715;26;21385;-76
2024/04/19 00:07:19;;;;;;;8.33;5.10;;;5.80;80.90;;;;;;5417077;26;20233;-74
2024/04/19 00:09:45;;;;;;;9.37;5.37;;;5.70;80.90;;;;;;5416668;26;20229;-76
2024/04/19 00:12:10;;;;;;;10.27;5.03;;;5.70;81.10;;;;;;5413006;26;20877;-74
2024/04/19 00:14:36;;;;;;;9.77;5.50;;;5.80;81.20;;;;;;5404004;26;20285;-77
2024/04/19 00:17:01;;;;;;;8.40;4.40;;;5.80;80.80;;;;;;5414973;26;20273;-74
2024/04/19 00:19:27;;;;;;;6.27;4.57;;;5.80;80.60;;;;;;5416302;26;20249;-76
2024/04/19 00:21:52;;;;;;;7.27;4.43;;;5.90;80.00;;;;;;5412922;26;20237;-77
2024/04/19 00:24:18;;;;;;;9.70;5.30;;;5.90;78.60;;;;;;5400757;26;20301;-76
2024/04/19 00:26:44;;;;;;;9.40;5.13;;;6.00;78.30;;;;;;5383965;26;20303;-76
2024/04/19 00:29:09;;;;;;;8.93;5.17;;;5.90;78.10;;;;;;5416444;26;20276;-76
2024/04/19 00:31:35;;;;;;;8.40;4.80;;;5.90;78.30;;;;;;5411716;26;20256;-76
2024/04/19 00:34:00;;;;;;;9.33;5.17;;;5.90;78.40;;;;;;5410812;26;20242;-75
2024/04/19 00:36:26;;;;;;;10.77;4.80;;;5.90;78.40;;;;;;5415704;26;20595;-75
2024/04/19 00:38:54;;;;;;;8.93;5.40;;;5.90;78.30;;;;;;5412575;26;20230;-75
2024/04/19 00:41:20;;;;;;;11.10;5.77;;;5.90;78.30;;;;;;5412236;26;20480;-75
2024/04/19 00:43:45;;;;;;;11.33;5.50;;;6.00;78.30;;;;;;5402423;26;21015;-76
2024/04/19 00:46:12;;;;;;;11.87;5.47;;;6.00;78.10;;;;;;5420934;26;20242;-75
2024/04/19 00:48:40;;;;;;;9.57;5.70;;;6.00;77.80;;;;;;5418866;26;20307;-75
2024/04/19 00:51:06;;;;;;;7.80;4.70;;;6.00;78.00;;;;;;5415160;26;20518;-76
2024/04/19 00:53:33;;;;;;;9.37;5.27;;;6.00;78.00;;;;;;5413669;26;20519;-73
2024/04/19 00:56:00;;;;;;;8.67;6.00;;;6.00;77.70;;;;;;5414766;26;20452;-76
2024/04/19 00:58:27;;;;;;;10.00;5.00;;;6.00;78.00;;;;;;5415800;26;20475;-75
2024/04/19 01:00:53;;;;;;;8.97;5.60;;;6.00;78.10;;;;;;5417942;26;20463;-74
2024/04/19 01:03:19;;;;;;;9.37;5.13;;;6.00;78.00;;;;;;5404782;26;20471;-75
2024/04/19 01:05:45;;;;;;;11.43;5.50;;;6.00;77.80;;;;;;5411121;26;20579;-76
2024/04/19 01:08:10;;;;;;;7.37;5.10;;;6.00;77.70;;;;;;5410242;26;20233;-75
2024/04/19 01:10:38;;;;;;;12.33;6.40;;;6.00;78.00;;;;;;5414629;26;20623;-77
2024/04/19 01:13:03;;;;;;;8.87;5.00;;;6.00;77.80;;;;;;5407181;26;20296;-79
2024/04/19 01:15:29;;;;;;;9.43;5.13;;;5.90;78.00;;;;;;5411796;26;20475;-76
2024/04/19 01:17:55;;;;;;;8.80;5.27;;;6.00;78.00;;;;;;5412684;26;20268;-74
2024/04/19 01:20:20;;;;;;;10.37;5.80;;;5.90;78.10;;;;;;5407751;26;20585;-75
2024/04/19 01:22:47;;;;;;;8.93;5.10;;;5.90;78.40;;;;;;5410113;26;20245;-75
2024/04/19 01:25:23;;;;;;;10.77;5.90;;;5.90;78.30;;;;;;5405665;26;20230;-77
2024/04/19 01:27:48;;;;;;;8.73;5.30;;;5.90;78.60;;;;;;5410018;26;20471;-74
2024/04/19 01:30:14;;;;;;;10.83;6.20;;;5.90;78.10;;;;;;5413188;26;20467;-77
2024/04/19 01:32:39;;;;;;;11.33;6.40;;;5.90;78.10;;;;;;5411337;26;20359;-73
2024/04/19 01:35:05;;;;;;;8.30;5.50;;;5.90;78.30;;;;;;5414766;26;20615;-76
2024/04/19 01:37:31;;;;;;;9.63;5.13;;;5.90;78.30;;;;;;5416572;26;20233;-75
2024/04/19 01:39:56;;;;;;;10.20;5.50;;;5.90;78.40;;;;;;5415009;26;20233;-75
2024/04/19 01:42:22;;;;;;;10.80;5.60;;;5.90;78.30;;;;;;5409988;26;20246;-76
2024/04/19 01:44:47;;;;;;;9.20;5.77;;;5.80;78.40;;;;;;5408022;26;20276;-74
2024/04/19 01:47:13;;;;;;;10.13;5.13;;;5.80;78.60;;;;;;5415271;26;20234;-75
2024/04/19 01:49:39;;;;;;;10.43;5.77;;;5.80;78.70;;;;;;5418672;26;20276;-74
2024/04/19 01:52:05;;;;;;;8.67;5.53;;;5.80;78.90;;;;;;5411808;26;21161;-74
2024/04/19 01:54:30;;;;;;;12.93;6.07;;;5.80;78.70;;;;;;5408420;26;20225;-75
2024/04/19 01:56:58;;;;;;;9.30;6.10;;;5.80;78.60;;;;;;5413974;26;20548;-75
2024/04/19 01:59:27;;;;;;;12.17;5.90;;;5.70;78.90;;;;;;5415194;26;20229;-76
2024/04/19 02:01:53;;;;;;;8.23;5.10;;;5.70;79.00;;;;;;5412952;26;20467;-76
2024/04/19 02:04:18;;;;;;;11.50;5.40;;;5.70;79.20;;;;;;5409764;26;20563;-75
2024/04/19 02:06:44;;;;;;;10.30;5.03;;;5.70;79.00;;;;;;5418423;26;20459;-77
2024/04/19 02:09:10;;;;;;;11.97;5.23;;;5.70;79.00;;;;;;5415879;26;20303;-78
2024/04/19 02:11:35;;;;;;;9.07;5.60;;;5.70;79.20;;;;;;5412862;26;20237;-75
2024/04/19 02:14:01;;;;;;;9.77;5.30;;;5.60;79.00;;;;;;5417741;26;20276;-74
2024/04/19 02:16:26;;;;;;;9.80;4.67;;;5.60;79.20;;;;;;5414127;26;20354;-76
2024/04/19 02:18:52;;;;;;;8.97;5.00;;;5.60;79.50;;;;;;5415661;26;20329;-75
2024/04/19 02:21:18;;;;;;;12.47;5.50;;;5.60;79.50;;;;;;5415374;26;20325;-78
2024/04/19 02:23:43;;;;;;;12.50;4.77;;;5.50;79.50;;;;;;5420923;26;20310;-74
2024/04/19 02:26:10;;;;;;;8.93;5.20;;;5.60;79.50;;;;;;5389893;26;20740;-74
2024/04/19 02:31:22;;;;;;;13.60;6.73;;;5.60;79.30;;;;;;5405555;26;20531;-76
2024/04/19 02:33:48;;;;;;;11.73;5.63;;;5.60;79.20;;;;;;5412752;26;21284;-74
2024/04/19 02:36:14;;;;;;;8.80;4.87;;;5.60;79.30;;;;;;5414117;26;20459;-78
2024/04/19 02:38:39;;;;;;;11.70;6.57;;;5.60;79.00;;;;;;5413783;26;21288;-75
2024/04/19 02:41:06;;;;;;;10.43;5.50;;;5.60;78.90;;;;;;5411485;26;20249;-75
2024/04/19 02:43:32;;;;;;;7.70;4.97;;;5.60;78.90;;;;;;5379849;26;20242;-75
2024/04/19 02:46:04;;;;;;;10.70;6.53;;;5.70;78.70;;;;;;5417108;26;20512;-75
2024/04/19 02:48:30;;;;;;;11.60;6.20;;;5.70;78.60;;;;;;5426266;26;20642;-75
2024/04/19 02:50:56;;;;;;;13.97;6.63;;;5.70;78.30;;;;;;5410277;26;20844;-79
2024/04/19 02:53:22;;;;;;;12.63;6.83;;;5.70;78.40;;;;;;5416973;26;20467;-75
2024/04/19 02:55:49;;;;;;;11.20;6.17;;;5.80;78.10;;;;;;5417971;26;20581;-75
2024/04/19 02:58:15;;;;;;;13.00;6.60;;;5.80;77.80;;;;;;5423621;26;20237;-76
2024/04/19 03:00:40;;;;;;;11.53;6.60;;;5.80;78.10;;;;;;5420169;26;20479;-78
2024/04/19 03:03:06;;;;;;;11.90;5.97;;;5.80;78.10;;;;;;5416710;26;20353;-74
2024/04/19 03:05:32;;;;;;;9.70;6.50;;;5.90;78.00;;;;;;5420393;26;20234;-76
2024/04/19 03:07:57;;;;;;;14.97;6.37;;;5.90;78.10;;;;;;5417706;26;20244;-75
2024/04/19 03:10:24;;;;;;;11.10;6.63;;;5.90;77.80;;;;;;5416761;26;20230;-77
2024/04/19 03:12:50;;;;;;;11.93;6.50;;;5.80;78.00;;;;;;5411852;26;20245;-74
2024/04/19 03:15:16;;;;;;;15.40;6.63;;;5.80;78.10;;;;;;5420201;26;20459;-75
2024/04/19 03:17:41;;;;;;;16.40;6.90;;;5.80;78.30;;;;;;5421964;26;21067;-77
2024/04/19 03:20:07;;;;;;;11.00;5.60;;;5.80;78.00;;;;;;5416087;26;20241;-75
2024/04/19 03:22:33;;;;;;;12.40;6.43;;;5.80;78.00;;;;;;5414674;26;20241;-80
2024/04/19 03:25:00;;;;;;;11.47;6.23;;;5.80;78.00;;;;;;5419642;26;20326;-75
2024/04/19 03:27:26;;;;;;;11.77;5.87;;;5.80;78.00;;;;;;5418309;26;20229;-74
2024/04/19 03:29:56;;;;;;;13.90;6.57;;;5.80;77.80;;;;;;5420006;26;20459;-76
2024/04/19 03:32:25;;;;;;;14.07;6.90;;;5.80;77.70;;;;;;5414602;26;20241;-74
2024/04/19 03:34:51;;;;;;;14.90;7.00;;;5.90;77.60;;;;;;5397220;26;20833;-75
2024/04/19 03:37:17;;;;;;;10.63;5.90;;;5.90;77.60;;;;;;5420164;26;20471;-75
2024/04/19 03:39:43;;;;;;;13.10;6.70;;;5.90;77.60;;;;;;5417423;26;21140;-76
2024/04/19 03:42:10;;;;;;;12.20;6.23;;;5.90;77.40;;;;;;5419429;26;20245;-76
2024/04/19 03:47:23;;;;;;;12.20;6.20;;;5.90;77.40;;;;;;5409164;26;20967;-76
2024/04/19 03:49:49;;;;;;;11.27;6.37;;;5.90;77.60;;;;;;5412291;26;20464;-75
2024/04/19 03:52:14;;;;;;;22.03;8.57;;;5.90;77.60;;;;;;5409368;26;20241;-75
2024/04/19 03:54:41;;;;;;;20.10;7.60;;;5.90;77.60;;;;;;5412577;26;20334;-74
2024/04/19 03:57:07;;;;;;;14.67;7.53;;;6.00;77.60;;;;;;5413154;26;20284;-76
2024/04/19 03:59:32;;;;;;;12.50;5.70;;;5.90;77.60;;;;;;5412347;26;20527;-77
2024/04/19 04:01:58;;;;;;;12.37;6.40;;;5.90;77.60;;;;;;5396957;26;20885;-75
2024/04/19 04:04:24;;;;;;;12.70;6.10;;;5.90;77.60;;;;;;5402376;26;20553;-77
2024/04/19 04:06:49;;;;;;;15.33;7.57;;;5.90;77.70;;;;;;5409756;26;20276;-77
2024/04/19 04:09:15;;;;;;;13.00;6.83;;;5.90;77.60;;;;;;5415312;26;20788;-77
2024/04/19 04:11:40;;;;;;;13.83;7.13;;;6.00;77.60;;;;;;5409207;26;20241;-74
2024/04/19 04:14:06;;;;;;;15.97;6.70;;;6.00;77.40;;;;;;5412110;26;20315;-77
2024/04/19 04:16:31;;;;;;;11.90;5.77;;;6.00;77.40;;;;;;5414240;26;20234;-77
2024/04/19 04:18:57;;;;;;;14.53;6.87;;;6.00;77.60;;;;;;5412687;26;20255;-77
2024/04/19 04:21:22;;;;;;;14.97;6.67;;;6.00;77.40;;;;;;5410229;26;20258;-77
2024/04/19 04:23:48;;;;;;;16.10;6.87;;;6.00;77.60;;;;;;5380226;26;20292;-76
2024/04/19 04:26:14;;;;;;;13.97;6.47;;;6.00;77.60;;;;;;5413100;26;20233;-79
2024/04/19 04:28:39;;;;;;;20.57;7.53;;;6.00;77.40;;;;;;5412827;26;20237;-77
2024/04/19 04:31:05;;;;;;;13.00;7.10;;;6.00;77.40;;;;;;5408945;26;20743;-76
2024/04/19 04:33:30;;;;;;;14.40;7.03;;;6.00;77.60;;;;;;5405773;26;20311;-73
2024/04/19 04:35:56;;;;;;;9.03;5.63;;;6.10;77.40;;;;;;5410149;26;20633;-74
2024/04/19 04:38:22;;;;;;;13.90;7.33;;;6.10;77.40;;;;;;5411084;26;20237;-77
2024/04/19 04:40:47;;;;;;;12.47;6.47;;;6.00;77.40;;;;;;5382965;26;20730;-78
2024/04/19 04:43:16;;;;;;;13.30;6.50;;;6.10;77.30;;;;;;5407024;26;20690;-76
2024/04/19 04:45:42;;;;;;;12.03;6.63;;;6.10;77.10;;;;;;5409188;26;20229;-73
2024/04/19 04:48:08;;;;;;;12.83;6.63;;;6.10;77.10;;;;;;5410342;26;20474;-78
2024/04/19 04:50:33;;;;;;;12.07;6.30;;;6.20;76.70;;;;;;5413080;26;20510;-77
2024/04/19 04:53:01;;;;;;;17.30;8.07;;;6.20;76.40;;;;;;5405141;26;20245;-75
2024/04/19 04:55:29;;;;;;;12.20;7.40;;;6.30;75.80;;;;;;5402553;26;20730;-73
2024/04/19 04:57:54;;;;;;;14.17;6.87;;;6.40;75.50;;;;;;5415821;26;20483;-75
2024/04/19 05:00:20;;;;;;;12.23;6.30;;;6.40;75.40;;;;;;5422448;26;20569;-76
2024/04/19 05:02:46;;;;;;;15.73;7.20;;;6.50;75.20;;;;;;5412912;26;20283;-75
2024/04/19 05:05:11;;;;;;;16.73;6.57;;;6.50;75.20;;;;;;5430194;26;20274;-75
2024/04/19 05:07:37;;;;;;;16.60;7.90;;;6.50;75.20;;;;;;5416952;26;20934;-76
2024/04/19 05:10:03;;;;;;;11.50;6.50;;;6.50;75.50;;;;;;5415954;26;20346;-78
2024/04/19 05:12:29;;;;;;;11.70;6.13;;;6.50;75.20;;;;;;5410081;26;20297;-75
2024/04/19 05:14:54;;;;;;;10.70;6.93;;;6.40;75.40;;;;;;5411690;26;20534;-75
2024/04/19 05:17:20;;;;;;;15.63;7.00;;;6.40;75.40;;;;;;5413674;26;20547;-77
2024/04/19 05:19:45;;;;;;;10.00;5.60;;;6.40;75.50;;;;;;5420742;26;20334;-77
2024/04/19 05:22:11;;;;;;;14.20;7.20;;;6.40;75.50;;;;;;5427937;26;20286;-75
2024/04/19 05:24:37;;;;;;;17.03;7.70;;;6.40;75.50;;;;;;5425649;26;20276;-76
2024/04/19 05:27:02;;;;;;;11.40;6.00;;;6.40;75.20;;;;;;5429603;26;20241;-76
2024/04/19 05:29:28;;;;;;;11.40;6.53;;;6.40;75.10;;;;;;5429251;26;20318;-77
2024/04/19 05:31:54;;;;;;;15.30;5.83;;;6.50;75.20;;;;;;5424508;26;20250;-75
2024/04/19 05:34:20;;;;;;;12.83;6.57;;;6.40;75.40;;;;;;5422877;26;20510;-73
2024/04/19 05:36:45;;;;;;;12.63;4.87;;;6.30;75.70;;;;;;5424078;26;20523;-74
2024/04/19 05:39:11;;;;;;;14.47;7.93;;;6.30;75.90;;;;;;5425535;26;20725;-72
2024/04/19 05:41:38;;;;;;;13.20;5.40;;;6.30;76.10;;;;;;5418570;26;20293;-72
2024/04/19 05:44:04;;;;;;;13.73;5.17;;;6.30;76.20;;;;;;5416201;26;20519;-72
2024/04/19 05:46:30;;;;;;;16.57;7.47;;;6.30;76.40;;;;;;5416242;26;20471;-73
2024/04/19 05:48:55;;;;;;;14.47;6.90;;;6.40;76.50;;;;;;5415104;26;20464;-73
2024/04/19 05:51:21;;;;;;;11.37;7.30;;;6.40;76.10;;;;;;5412019;26;20247;-73
2024/04/19 05:53:46;;;;;;;16.20;6.57;;;6.50;75.80;;;;;;5406790;26;20234;-73
2024/04/19 05:56:12;;;;;;;11.60;5.70;;;6.60;75.80;;;;;;5411346;26;20276;-74
2024/04/19 05:58:38;;;;;;;12.13;6.43;;;6.60;75.20;;;;;;5417458;26;20834;-73
2024/04/19 06:01:05;;;;;;;13.10;5.87;;;6.60;75.80;;;;;;5412157;26;20308;-76
2024/04/19 06:03:31;;;;;;;12.67;4.77;;;6.60;75.50;;;;;;5413519;26;20242;-74
2024/04/19 06:05:56;;;;;;;17.60;6.60;;;6.60;75.20;;;;;;5411524;26;20527;-74
2024/04/19 06:08:22;;;;;;;12.77;6.90;;;6.60;74.60;;;;;;5412660;26;20686;-76
2024/04/19 06:10:47;;;;;;;12.90;5.30;;;6.70;74.80;;;;;;5417391;26;20283;-75
2024/04/19 06:13:15;;;;;;;10.00;5.30;;;6.80;74.20;;;;;;5405108;26;20335;-76
2024/04/19 06:15:41;;;;;;;11.00;5.67;;;6.90;74.30;;;;;;5407964;26;20479;-74
2024/04/19 06:18:07;;;;;;;10.10;5.93;;;6.90;73.60;;;;;;5414922;26;20859;-75
2024/04/19 06:20:35;;;;;;;15.20;4.70;;;7.10;73.60;;;;;;5389264;26;20467;-75
2024/04/19 06:23:01;;;;;;;10.67;5.03;;;7.00;73.30;;;;;;5410595;26;20241;-75
2024/04/19 06:25:26;;;;;;;10.83;5.50;;;6.90;74.00;;;;;;5414009;26;20459;-74
2024/04/19 06:27:52;;;;;;;10.80;5.30;;;6.90;74.50;;;;;;5416296;26;20640;-74
2024/04/19 06:30:17;;;;;;;9.77;4.97;;;6.90;74.60;;;;;;5410772;26;20301;-73
2024/04/19 06:32:43;;;;;;;10.37;6.07;;;6.90;74.50;;;;;;5409203;26;20284;-76
2024/04/19 06:35:09;;;;;;;9.63;4.13;;;7.00;74.60;;;;;;5400231;26;20334;-75
2024/04/19 06:37:35;;;;;;;7.43;4.57;;;7.00;74.00;;;;;;5413139;26;20265;-75
2024/04/19 06:40:00;;;;;;;13.77;5.47;;;7.00;74.20;;;;;;5409973;26;20460;-73
2024/04/19 06:42:26;;;;;;;13.57;5.63;;;7.00;74.20;;;;;;5407463;26;20323;-75
2024/04/19 06:44:51;;;;;;;6.37;4.20;;;7.10;73.90;;;;;;5406665;26;20233;-75
2024/04/19 06:47:17;;;;;;;9.97;4.37;;;7.20;73.70;;;;;;5413156;26;20793;-76
2024/04/19 06:49:43;;;;;;;10.50;6.10;;;7.10;74.00;;;;;;5414465;26;20237;-76
2024/04/19 06:52:09;;;;;;;12.90;5.57;;;7.10;73.70;;;;;;5408676;26;20575;-75
2024/04/19 06:54:34;;;;;;;8.40;3.90;;;7.20;73.50;;;;;;5408659;26;20314;-74
2024/04/19 06:57:01;;;;;;;9.77;5.60;;;7.20;72.90;;;;;;5413601;26;20229;-75
2024/04/19 06:59:27;;;;;;;7.57;4.13;;;7.10;72.90;;;;;;5413705;26;20237;-77
2024/04/19 07:01:52;;;;;;;16.53;5.73;;;7.30;73.20;;;;;;5405948;26;20515;-75
2024/04/19 07:04:18;;;;;;;3.53;2.63;;;7.30;72.70;;;;;;5407136;26;20241;-75
2024/04/19 07:06:44;;;;;;;10.93;5.40;;;7.30;71.80;;;;;;5417387;26;20326;-76
2024/04/19 07:09:11;;;;;;;7.80;4.70;;;7.40;72.60;;;;;;5417404;26;20237;-76
2024/04/19 07:11:37;;;;;;;5.83;3.90;;;7.60;72.00;;;;;;5410842;26;20521;-75
2024/04/19 07:14:03;;;;;;;11.40;4.87;;;7.60;71.30;;;;;;5413930;26;20491;-77
2024/04/19 07:16:28;;;;;;;10.73;4.70;;;7.60;72.10;;;;;;5423818;26;20232;-74
2024/04/19 07:18:54;;;;;;;8.13;4.50;;;7.60;72.40;;;;;;5415522;26;20747;-76
2024/04/19 07:21:19;;;;;;;10.77;4.73;;;7.50;72.40;;;;;;5410050;26;20254;-75
2024/04/19 07:23:45;;;;;;;9.33;3.80;;;7.60;72.40;;;;;;5406643;26;20276;-75
2024/04/19 07:26:10;;;;;;;8.30;4.37;;;7.50;72.70;;;;;;5416352;26;20350;-76
2024/04/19 07:28:36;;;;;;;9.03;5.33;;;7.50;73.60;;;;;;5384335;26;20280;-74
2024/04/19 07:31:02;;;;;;;7.70;4.10;;;7.30;74.80;;;;;;5411227;26;20240;-75
2024/04/19 07:33:27;;;;;;;8.30;5.07;;;7.10;74.90;;;;;;5407371;26;20686;-74
2024/04/19 07:35:53;;;;;;;7.93;3.97;;;7.10;76.20;;;;;;5411518;26;20543;-77
2024/04/19 07:38:18;;;;;;;9.97;4.90;;;7.20;76.10;;;;;;5413748;26;20233;-75
2024/04/19 07:40:44;;;;;;;13.87;5.80;;;7.00;76.50;;;;;;5412061;26;20834;-76
2024/04/19 07:43:10;;;;;;;8.80;4.80;;;7.00;77.40;;;;;;5406602;26;20367;-75
2024/04/19 07:45:36;;;;;;;12.33;5.57;;;7.00;77.80;;;;;;5413211;26;20484;-74
2024/04/19 07:48:02;;;;;;;8.70;4.53;;;6.90;77.60;;;;;;5419673;26;20233;-75
2024/04/19 07:50:28;;;;;;;7.60;3.97;;;6.80;78.40;;;;;;5426717;26;20542;-76
2024/04/19 07:52:53;;;;;;;11.50;5.40;;;6.80;78.60;;;;;;5424379;26;20460;-75
2024/04/19 07:55:19;;;;;;;12.90;5.23;;;6.70;78.30;;;;;;5437583;26;20225;-75
2024/04/19 07:57:48;;;;;;;10.20;5.50;;;6.60;79.60;;;;;;5420376;26;20229;-75
2024/04/19 08:00:17;;;;;;;9.37;4.40;;;6.60;79.30;;;;;;5409787;26;20729;-76
2024/04/19 08:02:44;;;;;;;6.87;3.50;;;6.50;80.00;;;;;;5397781;26;20529;-79
2024/04/19 08:05:10;;;;;;;9.37;5.03;;;6.40;80.20;;;;;;5415822;26;20593;-75
2024/04/19 08:07:35;;;;;;;8.23;3.83;;;6.50;80.50;;;;;;5414640;26;20463;-77
2024/04/19 08:10:02;;;;;;;10.13;5.17;;;6.50;80.30;;;;;;5414348;26;20257;-75
2024/04/19 08:12:28;;;;;;;9.10;5.03;;;6.50;80.30;;;;;;5410677;26;20300;-75
2024/04/19 08:14:54;;;;;;;8.57;3.40;;;6.50;80.50;;;;;;5407251;26;20783;-75
2024/04/19 08:17:19;;;;;;;8.00;4.10;;;6.50;80.60;;;;;;5414047;26;20241;-74
2024/04/19 08:19:45;;;;;;;9.03;3.40;;;6.50;80.60;;;;;;5413069;26;20249;-76
2024/04/19 08:22:11;;;;;;;7.80;4.40;;;6.50;80.30;;;;;;5408907;26;20241;-76
2024/04/19 08:24:36;;;;;;;10.20;4.60;;;6.40;80.90;;;;;;5416992;26;20245;-75
2024/04/19 08:27:02;;;;;;;7.80;4.17;;;6.30;81.20;;;;;;5418608;26;20631;-74
2024/04/19 08:29:32;;;;;;;8.60;4.90;;;6.30;81.90;;;;;;5411958;26;20233;-74
2024/04/19 08:31:57;;;;;;;9.97;5.00;;;6.30;81.90;;;;;;5409370;26;20600;-75
2024/04/19 08:34:23;;;;;;;7.80;4.50;;;6.30;82.70;;;;;;5409031;26;20471;-75
2024/04/19 08:36:48;;;;;;;8.30;4.50;;;6.30;81.90;;;;;;5416482;26;20784;-74
2024/04/19 08:39:14;;;;;;;8.90;3.73;;;6.20;81.90;;;;;;5417153;26;20337;-77
2024/04/19 08:41:40;;;;;;;5.40;3.33;;;6.20;82.50;;;;;;5413984;26;20782;-76
2024/04/19 08:44:06;;;;;;;9.40;5.37;;;6.00;82.50;;;;;;5419176;26;20231;-76
2024/04/19 08:46:33;;;;;;;9.30;4.17;;;5.90;82.80;;;;;;5426071;26;20274;-77
2024/04/19 08:49:03;;;;;;;12.33;5.03;;;5.90;84.10;;;;;;5421968;26;20467;-75
2024/04/19 08:51:35;;;;;;;10.57;5.70;;;5.90;83.80;;;;;;5416006;26;20509;-76
2024/04/19 08:54:00;;;;;;;10.80;4.83;;;5.90;84.70;;;;;;5415384;26;20601;-74
2024/04/19 08:56:28;;;;;;;5.87;3.53;;;5.90;84.70;;;;;;5414437;26;20467;-74
2024/04/19 08:58:54;;;;;;;6.37;3.67;;;5.90;85.20;;;;;;5418349;26;20284;-74
2024/04/19 09:01:20;;;;;;;5.30;3.70;;;5.70;83.80;;;;;;5415072;26;20486;-75
2024/04/19 09:03:47;;;;;;;7.23;3.03;;;5.60;84.00;;;;;;5416343;26;20463;-75
2024/04/19 09:06:16;;;;;;;10.77;4.60;;;5.60;84.90;;;;;;5411416;26;20487;-76
2024/04/19 09:08:42;;;;;;;7.47;3.77;;;5.60;85.20;;;;;;5416393;26;20467;-75
2024/04/19 09:11:15;;;;;;;5.60;2.70;;;5.50;85.50;;;;;;5414296;26;20548;-77
2024/04/19 09:13:42;;;;;;;10.77;4.20;;;5.50;85.30;;;;;;5415081;26;20463;-76
2024/04/19 09:16:08;;;;;;;7.90;4.77;;;5.40;86.00;;;;;;5384208;26;20459;-75
2024/04/19 09:18:34;;;;;;;8.53;3.47;;;5.40;85.90;;;;;;5409349;26;20505;-76
2024/04/19 09:21:00;;;;;;;6.87;3.97;;;5.40;86.00;;;;;;5413367;26;20531;-77
2024/04/19 09:23:26;;;;;;;8.10;3.77;;;5.40;86.00;;;;;;5395825;26;20283;-75
2024/04/19 09:25:56;;;;;;;7.80;3.90;;;5.40;86.20;;;;;;5411378;26;20632;-74
2024/04/19 09:28:22;;;;;;;8.87;4.87;;;5.40;86.50;;;;;;5407511;26;20245;-75
2024/04/19 09:30:54;;;;;;;5.27;3.33;;;5.40;86.30;;;;;;5415230;26;20467;-74
2024/04/19 09:33:21;;;;;;;6.73;3.70;;;5.30;85.90;;;;;;5408655;26;20460;-76
2024/04/19 09:35:50;;;;;;;7.33;3.57;;;5.30;86.60;;;;;;5417571;26;20922;-77
2024/04/19 09:38:17;;;;;;;9.10;3.00;;;5.30;86.00;;;;;;5403798;26;20457;-75
2024/04/19 09:40:46;;;;;;;10.57;5.53;;;5.20;86.60;;;;;;5415961;26;21078;-75
2024/04/19 09:43:16;;;;;;;8.67;3.93;;;5.30;87.00;;;;;;5379410;26;20523;-77
2024/04/19 09:45:47;;;;;;;7.30;3.70;;;5.30;87.40;;;;;;5424892;26;20463;-76
2024/04/19 09:48:17;;;;;;;9.03;5.10;;;5.30;87.00;;;;;;5415215;26;21075;-76
2024/04/19 09:50:49;;;;;;;8.10;3.20;;;5.30;86.90;;;;;;5418622;26;20467;-75
2024/04/19 09:53:19;;;;;;;14.93;5.23;;;5.30;87.30;;;;;;5411412;26;20913;-77
2024/04/19 09:56:12;;;;;;;6.10;3.73;;;5.30;87.60;;;;;;5421189;26;20584;-76
2024/04/19 09:58:39;;;;;;;10.53;5.33;;;5.30;87.00;;;;;;5418987;26;20471;-75
2024/04/19 10:01:04;;;;;;;8.03;3.90;;;5.40;87.10;;;;;;5413992;26;20514;-76
2024/04/19 10:03:30;;;;;;;12.70;5.93;;;5.40;87.30;;;;;;5408776;26;20491;-75
2024/04/19 10:05:57;;;;;;;8.73;4.87;;;5.40;87.40;;;;;;5408771;26;20234;-75
2024/04/19 10:08:26;;;;;;;8.40;4.77;;;5.40;87.30;;;;;;5420132;26;20516;-77
2024/04/19 10:10:52;;;;;;;11.87;5.30;;;5.40;87.60;;;;;;5416597;26;20572;-76
2024/04/19 10:13:18;;;;;;;12.00;5.30;;;5.30;87.30;;;;;;5410311;26;20463;-74
2024/04/19 10:15:46;;;;;;;11.33;4.67;;;5.40;87.30;;;;;;5410543;26;20464;-77
2024/04/19 10:18:12;;;;;;;11.10;6.10;;;5.30;87.00;;;;;;5419947;26;20569;-75
2024/04/19 10:20:43;;;;;;;6.17;3.80;;;5.30;87.30;;;;;;5416521;26;20476;-75
2024/04/19 10:23:14;;;;;;;10.97;5.50;;;5.30;87.10;;;;;;5410029;26;20361;-75
2024/04/19 10:25:39;;;;;;;11.23;6.10;;;5.40;87.30;;;;;;5416655;26;20473;-75
2024/04/19 10:28:31;;;;;;;8.10;3.87;;;5.30;87.40;;;;;;5408025;26;20467;-75
2024/04/19 10:30:57;;;;;;;13.03;6.60;;;5.30;87.10;;;;;;5417096;26;20284;-76
2024/04/19 10:33:23;;;;;;;7.07;3.33;;;5.40;87.30;;;;;;5392601;26;20611;-76
2024/04/19 10:35:48;;;;;;;8.40;4.80;;;5.40;87.60;;;;;;5434758;26;20463;-75
2024/04/19 10:38:14;;;;;;;12.33;6.47;;;5.50;87.80;;;;;;5437972;26;20281;-75
2024/04/19 10:40:40;;;;;;;8.07;4.77;;;5.50;87.10;;;;;;5421894;26;20236;-76
2024/04/19 10:43:07;;;;;;;10.83;5.43;;;5.50;87.60;;;;;;5377061;26;20243;-75
2024/04/19 10:45:34;;;;;;;12.60;6.30;;;5.50;87.10;;;;;;5416406;26;20240;-75
2024/04/19 10:48:00;;;;;;;11.47;5.80;;;5.50;87.40;;;;;;5414766;26;20513;-75
2024/04/19 10:50:30;;;;;;;9.70;5.67;;;5.60;87.40;;;;;;5417541;26;20459;-74
2024/04/19 10:52:57;;;;;;;9.87;5.03;;;5.60;87.30;;;;;;5405255;26;20527;-76
2024/04/19 10:55:29;;;;;;;9.90;5.90;;;5.70;87.80;;;;;;5413729;26;20527;-76
2024/04/19 10:57:56;;;;;;;7.70;3.80;;;5.70;87.80;;;;;;5417967;26;20569;-76
2024/04/19 11:00:22;;;;;;;11.10;5.23;;;5.80;88.00;;;;;;5414847;26;20867;-77
2024/04/19 11:02:49;;;;;;;13.37;5.40;;;5.80;87.10;;;;;;5409219;26;20479;-77
2024/04/19 11:05:15;;;;;;;13.37;6.40;;;5.80;87.30;;;;;;5412615;26;20463;-77
2024/04/19 11:07:41;;;;;;;10.53;5.13;;;5.80;87.40;;;;;;5415373;26;20542;-76
2024/04/19 11:10:07;;;;;;;9.13;4.70;;;5.70;87.40;;;;;;5422004;26;20456;-76
2024/04/19 11:12:33;;;;;;;7.70;3.93;;;5.70;87.60;;;;;;5411369;26;21027;-75
2024/04/19 11:15:01;;;;;;;7.60;4.67;;;5.70;87.30;;;;;;5400094;26;20529;-75
2024/04/19 11:17:26;;;;;;;8.93;4.10;;;5.70;87.60;;;;;;5413898;26;20487;-75
2024/04/19 11:19:52;;;;;;;12.70;4.40;;;5.70;88.10;;;;;;5412218;26;20464;-75
2024/04/19 11:22:18;;;;;;;7.33;3.53;;;5.70;87.80;;;;;;5408717;26;20272;-75
2024/04/19 11:24:43;;;;;;;7.03;4.30;;;5.70;88.30;;;;;;5418675;26;20287;-76
2024/04/19 11:27:09;;;;;;;5.43;2.50;;;5.60;87.80;;;;;;5411074;26;20816;-75
2024/04/19 11:29:35;;;;;;;7.60;4.07;;;5.70;87.70;;;;;;5416698;26;20335;-74
2024/04/19 11:32:08;;;;;;;5.37;2.70;;;5.70;88.30;;;;;;5413519;26;20296;-75
2024/04/19 11:34:34;;;;;;;8.47;3.40;;;5.70;87.80;;;;;;5412618;26;20534;-76
2024/04/19 11:37:03;;;;;;;8.70;3.60;;;5.70;88.30;;;;;;5413988;26;21050;-75
2024/04/19 11:39:33;;;;;;;5.67;3.20;;;5.60;88.10;;;;;;5419539;26;20515;-76
2024/04/19 11:42:00;;;;;;;7.13;3.40;;;5.60;88.00;;;;;;5409792;26;20569;-75
2024/04/19 11:44:26;;;;;;;7.73;2.97;;;5.60;87.60;;;;;;5413917;26;20531;-74
2024/04/19 11:46:52;;;;;;;8.60;3.80;;;5.60;87.70;;;;;;5417812;26;20467;-77
2024/04/19 11:49:18;;;;;;;5.53;2.90;;;5.60;88.40;;;;;;5413845;26;20475;-76
2024/04/19 11:51:45;;;;;;;5.23;2.80;;;5.60;87.70;;;;;;5417599;26;20566;-77
2024/04/19 11:54:11;;;;;;;6.73;3.67;;;5.60;87.60;;;;;;5416119;26;20241;-76
2024/04/19 11:56:37;;;;;;;6.90;3.40;;;5.60;87.80;;;;;;5418092;26;21051;-75
2024/04/19 11:59:03;;;;;;;4.33;2.40;;;5.60;88.30;;;;;;5422403;26;20463;-76
2024/04/19 12:01:28;;;;;;;6.30;2.93;;;5.60;88.60;;;;;;5421552;26;20585;-76
2024/04/19 12:03:55;;;;;;;5.27;2.47;;;5.60;88.60;;;;;;5389876;26;20602;-75
2024/04/19 12:06:21;;;;;;;4.33;2.60;;;5.50;87.80;;;;;;5431653;26;20268;-76
2024/04/19 12:08:50;;;;;;;5.47;2.50;;;5.50;88.40;;;;;;5433828;26;20467;-75
2024/04/19 12:11:16;;;;;;;6.80;3.13;;;5.50;89.00;;;;;;5421785;26;20475;-75
2024/04/19 12:13:46;;;;;;;3.67;1.83;;;5.50;88.70;;;;;;5427369;26;20515;-75
2024/04/19 12:16:12;;;;;;;7.20;2.77;;;5.50;88.60;;;;;;5443634;26;20299;-76
2024/04/19 12:18:38;;;;;;;5.80;2.87;;;5.50;88.00;;;;;;5432978;26;20463;-76
2024/04/19 12:21:04;;;;;;;4.30;2.30;;;5.50;88.30;;;;;;5426755;26;20234;-75
2024/04/19 12:23:29;;;;;;;4.53;2.90;;;5.50;88.30;;;;;;5426323;26;20229;-74
2024/04/19 12:25:55;;;;;;;5.63;3.00;;;5.50;89.00;;;;;;5425927;26;20466;-74
2024/04/19 12:28:24;;;;;;;3.60;2.00;;;5.50;89.00;;;;;;5425005;26;20772;-74
2024/04/19 12:30:54;;;;;;;4.17;2.30;;;5.50;88.70;;;;;;5424507;26;20268;-75
2024/04/19 12:33:20;;;;;;;6.77;2.40;;;5.50;88.10;;;;;;5410960;26;20466;-75
2024/04/19 12:35:46;;;;;;;3.57;2.37;;;5.50;88.30;;;;;;5417495;26;20531;-74
2024/04/19 12:38:12;;;;;;;4.40;1.70;;;5.50;87.80;;;;;;5418909;26;20467;-76
2024/04/19 12:40:38;;;;;;;2.70;1.90;;;5.50;88.10;;;;;;5420621;26;20237;-75
2024/04/19 12:43:04;;;;;;;4.77;3.63;;;5.60;88.30;;;;;;5422080;26;20526;-75
2024/04/19 12:45:30;;;;;;;3.10;2.03;;;5.60;88.30;;;;;;5420257;26;20319;-76
2024/04/19 12:48:08;;;;;;;3.30;1.60;;;5.60;88.40;;;;;;5418761;26;20479;-76
2024/04/19 12:50:35;;;;;;;3.70;1.90;;;5.60;87.80;;;;;;5417747;26;20238;-76
2024/04/19 12:53:02;;;;;;;5.47;2.67;;;5.70;87.70;;;;;;5407254;26;20560;-76